Time;durP1;ratioP1;P1;durP2;ratioP2;P2;SDS_P1;SDS_P2;PMS_P1;PMS_P2;Temp;Humidity;BMP_temperature;BMP_pressure;BME280_temperature;BME280_humidity;BME280_pressure;Samples;Min_cycle;Max_cycle;Signal;HPM_P1;HPM_P2
2023/08/13 00:01:43;;;;;;;0.40;0.40;;;15.00;99.90;;;;;;5006567;28;20038;-71
2023/08/13 00:04:09;;;;;;;0.40;0.40;;;14.40;99.90;;;;;;5006804;28;20429;-72
2023/08/13 00:06:34;;;;;;;0.52;0.52;;;14.70;99.90;;;;;;4990452;28;20041;-72
2023/08/13 00:09:00;;;;;;;0.40;0.40;;;14.50;99.90;;;;;;5001804;28;20110;-72
2023/08/13 00:11:25;;;;;;;1.55;0.57;;;14.40;99.90;;;;;;5006459;28;20073;-72
2023/08/13 00:13:51;;;;;;;0.30;0.30;;;14.60;99.90;;;;;;5006239;28;20099;-72
2023/08/13 00:16:17;;;;;;;0.30;0.30;;;14.50;99.90;;;;;;5001788;28;20056;-72
2023/08/13 00:18:43;;;;;;;0.40;0.40;;;14.80;99.90;;;;;;5006139;28;20039;-72
2023/08/13 00:21:08;;;;;;;0.25;0.25;;;14.40;99.90;;;;;;5012828;28;20155;-72
2023/08/13 00:23:34;;;;;;;0.50;0.50;;;14.60;99.90;;;;;;5005283;28;20096;-72
2023/08/13 00:26:00;;;;;;;0.40;0.40;;;14.50;99.90;;;;;;5008104;28;20061;-72
2023/08/13 00:28:25;;;;;;;0.38;0.38;;;14.60;99.90;;;;;;5006352;28;20048;-72
2023/08/13 00:30:51;;;;;;;0.30;0.30;;;14.90;99.90;;;;;;5005266;28;20103;-72
2023/08/13 00:33:17;;;;;;;0.50;0.50;;;14.90;99.90;;;;;;5005760;28;20042;-72
2023/08/13 00:35:42;;;;;;;0.40;0.40;;;15.00;99.90;;;;;;5005700;28;20038;-74
2023/08/13 00:38:08;;;;;;;0.30;0.30;;;15.00;99.90;;;;;;5001975;28;20061;-71
2023/08/13 00:40:34;;;;;;;0.50;0.50;;;15.10;99.90;;;;;;5005116;28;20037;-71
2023/08/13 00:43:00;;;;;;;0.32;0.32;;;14.80;99.90;;;;;;5002437;28;20046;-74
2023/08/13 00:45:26;;;;;;;0.20;0.20;;;14.90;99.90;;;;;;4986109;28;20545;-71
2023/08/13 00:47:52;;;;;;;0.30;0.30;;;15.00;99.90;;;;;;4990207;28;20046;-71
2023/08/13 00:50:18;;;;;;;0.68;0.68;;;14.80;99.90;;;;;;4988504;28;20047;-72
2023/08/13 00:52:44;;;;;;;0.40;0.40;;;15.20;99.90;;;;;;5013025;28;20045;-72
2023/08/13 00:55:11;;;;;;;0.52;0.52;;;15.10;99.90;;;;;;4984976;28;20084;-71
2023/08/13 00:57:38;;;;;;;0.50;0.50;;;15.30;99.90;;;;;;5005641;28;20045;-72
2023/08/13 01:00:06;;;;;;;0.30;0.30;;;15.20;99.90;;;;;;5006477;28;20393;-72
2023/08/13 01:02:32;;;;;;;;;;;15.00;99.90;;;;;;5006636;28;20502;-72
2023/08/13 01:04:59;;;;;;;1.20;0.68;;;15.10;99.90;;;;;;5006159;28;19944;-72
2023/08/13 01:07:33;;;;;;;0.30;0.30;;;15.20;99.90;;;;;;5006323;28;20144;-72
2023/08/13 01:10:20;;;;;;;0.30;0.30;;;15.60;99.90;;;;;;5003874;28;20046;-73
2023/08/13 01:13:04;;;;;;;0.85;0.85;;;15.70;99.90;;;;;;4986633;28;20041;-72
2023/08/13 01:15:40;;;;;;;0.40;0.40;;;15.70;99.90;;;;;;5005888;28;20053;-72
2023/08/13 01:18:07;;;;;;;0.30;0.30;;;15.40;99.90;;;;;;5018232;28;20044;-71
2023/08/13 01:20:36;;;;;;;0.40;0.40;;;15.70;99.90;;;;;;5007789;28;20037;-72
2023/08/13 01:23:02;;;;;;;0.30;0.30;;;15.40;99.90;;;;;;5005204;28;20042;-72
2023/08/13 01:25:29;;;;;;;0.40;0.40;;;15.70;99.90;;;;;;5009154;28;20088;-71
2023/08/13 01:28:12;;;;;;;0.38;0.38;;;15.50;99.90;;;;;;5009278;28;20521;-72
2023/08/13 01:30:56;;;;;;;0.30;0.30;;;15.50;99.90;;;;;;4989060;28;20052;-71
2023/08/13 01:33:28;;;;;;;0.30;0.30;;;15.70;99.90;;;;;;5009098;28;20037;-72
2023/08/13 01:36:00;;;;;;;0.20;0.20;;;15.70;99.90;;;;;;5009160;28;20052;-75
2023/08/13 01:38:27;;;;;;;0.32;0.32;;;15.70;99.90;;;;;;5006491;28;20038;-72
2023/08/13 01:40:53;;;;;;;0.30;0.30;;;15.50;99.90;;;;;;5008200;28;20045;-71
2023/08/13 01:43:18;;;;;;;0.30;0.30;;;15.30;99.90;;;;;;5009183;28;20528;-71
2023/08/13 01:45:44;;;;;;;0.35;0.35;;;15.60;99.90;;;;;;5009710;28;20087;-71
2023/08/13 01:48:10;;;;;;;0.30;0.30;;;15.60;99.90;;;;;;5009366;28;20756;-72
2023/08/13 01:50:39;;;;;;;1.05;0.82;;;15.10;99.90;;;;;;5009439;28;20049;-71
2023/08/13 01:53:05;;;;;;;0.30;0.30;;;15.30;99.90;;;;;;5008711;28;20041;-75
2023/08/13 01:55:31;;;;;;;0.32;0.32;;;15.20;99.90;;;;;;5006378;28;20104;-71
2023/08/13 01:57:56;;;;;;;0.35;0.35;;;15.60;99.90;;;;;;5005489;28;20046;-72
2023/08/13 02:00:22;;;;;;;0.40;0.40;;;15.60;99.90;;;;;;5009341;28;20398;-72
2023/08/13 02:02:48;;;;;;;0.38;0.38;;;15.30;99.90;;;;;;4998203;28;20056;-72
2023/08/13 02:05:14;;;;;;;0.40;0.40;;;15.30;99.90;;;;;;5007945;28;20037;-72
2023/08/13 02:07:39;;;;;;;0.30;0.30;;;15.60;99.90;;;;;;5006528;28;20029;-72
2023/08/13 02:10:05;;;;;;;0.40;0.40;;;15.30;99.90;;;;;;4994261;28;20394;-73
2023/08/13 02:12:31;;;;;;;0.30;0.30;;;15.40;99.90;;;;;;5006905;28;20561;-73
2023/08/13 02:14:56;;;;;;;0.30;0.30;;;15.20;99.90;;;;;;5006061;28;20125;-73
2023/08/13 02:17:22;;;;;;;0.38;0.38;;;15.50;99.90;;;;;;4992263;28;20112;-73
2023/08/13 02:19:48;;;;;;;0.38;0.38;;;15.30;99.90;;;;;;5008932;28;20112;-73
2023/08/13 02:22:13;;;;;;;0.30;0.30;;;15.20;99.90;;;;;;5001829;28;20532;-72
2023/08/13 02:24:39;;;;;;;0.32;0.32;;;15.50;99.90;;;;;;5008598;28;20405;-73
2023/08/13 02:27:05;;;;;;;0.30;0.30;;;15.50;99.90;;;;;;4988027;28;20064;-73
2023/08/13 02:29:31;;;;;;;0.40;0.40;;;15.50;99.90;;;;;;4991554;28;20064;-73
2023/08/13 02:31:56;;;;;;;0.40;0.40;;;15.20;99.90;;;;;;5012214;28;20073;-73
2023/08/13 02:34:23;;;;;;;0.40;0.40;;;15.50;99.90;;;;;;4991488;28;21575;-72
2023/08/13 02:36:49;;;;;;;0.40;0.40;;;15.10;99.90;;;;;;5007686;28;20040;-73
2023/08/13 02:39:15;;;;;;;0.65;0.65;;;15.50;99.90;;;;;;5007038;28;20041;-73
2023/08/13 02:41:40;;;;;;;0.40;0.40;;;15.10;99.90;;;;;;5004818;28;20069;-71
2023/08/13 02:44:06;;;;;;;0.40;0.40;;;15.00;99.90;;;;;;5008749;28;20046;-69
2023/08/13 02:46:32;;;;;;;0.40;0.40;;;15.20;99.90;;;;;;5007872;28;20096;-73
2023/08/13 02:48:57;;;;;;;0.30;0.30;;;15.30;99.90;;;;;;5007777;28;20437;-72
2023/08/13 02:51:24;;;;;;;0.30;0.30;;;15.00;99.90;;;;;;5002862;28;20049;-73
2023/08/13 02:53:50;;;;;;;0.73;0.40;;;15.40;99.90;;;;;;4991351;28;20033;-72
2023/08/13 02:56:16;;;;;;;0.40;0.40;;;15.30;99.90;;;;;;5006274;28;20638;-72
2023/08/13 02:58:42;;;;;;;0.35;0.35;;;14.90;99.90;;;;;;4989188;28;20077;-72
2023/08/13 03:01:09;;;;;;;0.30;0.30;;;15.30;99.90;;;;;;5004905;28;20439;-72
2023/08/13 03:03:34;;;;;;;0.40;0.40;;;15.00;99.90;;;;;;5006898;28;20034;-72
2023/08/13 03:06:00;;;;;;;0.40;0.40;;;15.00;99.90;;;;;;5006980;28;20497;-72
2023/08/13 03:08:26;;;;;;;0.43;0.43;;;15.20;99.90;;;;;;5012421;28;20116;-72
2023/08/13 03:10:51;;;;;;;0.40;0.40;;;15.00;99.90;;;;;;5006148;28;20505;-72
2023/08/13 03:13:17;;;;;;;0.40;0.40;;;14.80;99.90;;;;;;5003496;28;20141;-72
2023/08/13 03:15:44;;;;;;;0.35;0.32;;;15.30;99.90;;;;;;5003549;28;20246;-72
2023/08/13 03:18:10;;;;;;;0.60;0.60;;;14.90;99.90;;;;;;4990118;28;20034;-72
2023/08/13 03:20:36;;;;;;;0.40;0.40;;;14.90;99.90;;;;;;5007495;28;20060;-72
2023/08/13 03:23:03;;;;;;;0.47;0.47;;;15.10;99.90;;;;;;5002494;28;20089;-72
2023/08/13 03:25:29;;;;;;;1.85;0.68;;;;;;;;;;5006546;28;20117;-72
2023/08/13 03:27:55;;;;;;;0.30;0.30;;;14.90;99.90;;;;;;4999197;28;20041;-72
2023/08/13 03:30:21;;;;;;;0.85;0.85;;;14.90;99.90;;;;;;5006558;28;20049;-72
2023/08/13 03:32:46;;;;;;;0.35;0.35;;;15.00;99.90;;;;;;5005386;28;20065;-72
2023/08/13 03:35:12;;;;;;;0.60;0.60;;;14.70;99.90;;;;;;5005406;28;20631;-72
2023/08/13 03:37:37;;;;;;;0.30;0.30;;;14.70;99.90;;;;;;5007063;28;20173;-72
2023/08/13 03:40:05;;;;;;;0.40;0.40;;;14.80;99.90;;;;;;4994552;28;20041;-72
2023/08/13 03:42:31;;;;;;;0.40;0.40;;;14.80;99.90;;;;;;5004037;28;20065;-72
2023/08/13 03:44:58;;;;;;;0.30;0.30;;;14.70;99.90;;;;;;5016908;28;20045;-72
2023/08/13 03:47:24;;;;;;;0.50;0.50;;;15.00;99.90;;;;;;5006026;28;20040;-72
2023/08/13 03:49:50;;;;;;;0.40;0.40;;;15.00;99.90;;;;;;5005701;28;20323;-71
2023/08/13 03:52:15;;;;;;;0.70;0.70;;;14.60;99.90;;;;;;5005866;28;20589;-71
2023/08/13 03:54:41;;;;;;;0.73;0.73;;;14.70;99.90;;;;;;5005263;28;20049;-72
2023/08/13 03:57:07;;;;;;;0.55;0.50;;;14.60;99.90;;;;;;4991748;28;20030;-72
2023/08/13 03:59:32;;;;;;;0.40;0.40;;;14.90;99.90;;;;;;4995406;28;20092;-72
2023/08/13 04:01:58;;;;;;;0.40;0.40;;;14.70;99.90;;;;;;5005531;28;20046;-71
2023/08/13 04:04:25;;;;;;;1.02;0.90;;;14.90;99.90;;;;;;5003968;28;20041;-72
2023/08/13 04:06:51;;;;;;;0.73;0.73;;;14.90;99.90;;;;;;4989783;28;20037;-72
2023/08/13 04:09:17;;;;;;;0.52;0.52;;;14.80;99.90;;;;;;5006898;28;20046;-72
2023/08/13 04:11:42;;;;;;;0.52;0.52;;;14.50;99.90;;;;;;5007685;28;20061;-72
2023/08/13 04:14:08;;;;;;;0.30;0.30;;;14.90;99.90;;;;;;5003658;28;20049;-72
2023/08/13 04:16:34;;;;;;;0.40;0.40;;;14.70;99.90;;;;;;5022133;28;20034;-71
2023/08/13 04:19:00;;;;;;;0.40;0.40;;;14.90;99.90;;;;;;4987728;28;20034;-72
2023/08/13 04:21:26;;;;;;;0.60;0.60;;;14.60;99.90;;;;;;4984669;28;20497;-72
2023/08/13 04:23:55;;;;;;;0.28;0.28;;;14.50;99.90;;;;;;5005388;28;20525;-72
2023/08/13 04:26:22;;;;;;;0.45;0.45;;;14.80;99.90;;;;;;5013659;28;20049;-72
2023/08/13 04:28:48;;;;;;;0.50;0.50;;;14.60;99.90;;;;;;5006020;28;20053;-72
2023/08/13 04:31:15;;;;;;;0.40;0.40;;;14.60;99.90;;;;;;5004492;28;20065;-72
2023/08/13 04:33:41;;;;;;;0.70;0.70;;;14.70;99.90;;;;;;4988704;28;20038;-72
2023/08/13 04:36:07;;;;;;;0.55;0.55;;;14.70;99.90;;;;;;4989655;28;20045;-72
2023/08/13 04:38:33;;;;;;;0.55;0.55;;;14.60;99.90;;;;;;5005828;28;20030;-72
2023/08/13 04:41:00;;;;;;;1.05;0.80;;;14.70;99.90;;;;;;4980376;28;20105;-72
2023/08/13 04:43:25;;;;;;;0.30;0.30;;;14.90;99.90;;;;;;5005208;28;20046;-72
2023/08/13 04:45:51;;;;;;;0.40;0.40;;;15.00;99.90;;;;;;5005911;28;20065;-72
2023/08/13 04:48:38;;;;;;;0.40;0.40;;;15.00;99.90;;;;;;5005554;28;20049;-72
2023/08/13 04:51:03;;;;;;;0.30;0.30;;;15.00;99.90;;;;;;4996438;28;20084;-72
2023/08/13 04:53:29;;;;;;;0.40;0.40;;;14.90;99.90;;;;;;5005671;28;20037;-71
2023/08/13 04:55:54;;;;;;;0.40;0.40;;;15.00;99.90;;;;;;5006148;28;20049;-75
2023/08/13 04:58:20;;;;;;;0.38;0.38;;;15.00;99.90;;;;;;5009469;28;20038;-73
2023/08/13 05:00:46;;;;;;;0.38;0.38;;;15.40;99.90;;;;;;5018355;28;20065;-72
2023/08/13 05:03:11;;;;;;;0.40;0.40;;;15.10;99.90;;;;;;5009413;28;20045;-72
2023/08/13 05:05:37;;;;;;;0.50;0.50;;;15.30;99.90;;;;;;5009661;28;20041;-72
2023/08/13 05:08:03;;;;;;;0.50;0.50;;;15.30;99.90;;;;;;5006354;28;20053;-72
2023/08/13 05:10:28;;;;;;;0.20;0.20;;;15.20;99.90;;;;;;5006404;28;20141;-72
2023/08/13 05:12:54;;;;;;;0.63;0.63;;;15.40;99.90;;;;;;5009802;28;20053;-72
2023/08/13 05:15:20;;;;;;;0.50;0.50;;;15.40;99.90;;;;;;5009319;28;20046;-72
2023/08/13 05:17:45;;;;;;;0.45;0.40;;;15.50;99.90;;;;;;5008861;28;20048;-73
2023/08/13 05:20:11;;;;;;;0.40;0.40;;;15.60;99.90;;;;;;4993793;28;20030;-72
2023/08/13 05:22:37;;;;;;;0.30;0.30;;;15.70;99.90;;;;;;5005830;28;20068;-72
2023/08/13 05:25:03;;;;;;;4.38;0.68;;;15.90;99.90;;;;;;4989088;28;20050;-72
2023/08/13 05:27:29;;;;;;;0.30;0.30;;;15.80;99.90;;;;;;5001883;28;20383;-73
2023/08/13 05:29:54;;;;;;;0.45;0.45;;;15.90;99.90;;;;;;4981975;28;20049;-72
2023/08/13 05:32:22;;;;;;;0.90;0.90;;;15.80;99.90;;;;;;5008868;28;20052;-72
2023/08/13 05:34:48;;;;;;;0.30;0.30;;;16.00;99.90;;;;;;5009284;28;20042;-72
2023/08/13 05:37:13;;;;;;;0.57;0.57;;;15.60;99.90;;;;;;5009360;28;20053;-72
2023/08/13 05:39:39;;;;;;;0.70;0.70;;;16.00;99.90;;;;;;4987585;28;20394;-73
2023/08/13 05:42:05;;;;;;;0.50;0.50;;;16.00;99.90;;;;;;4987037;28;20532;-72
2023/08/13 05:44:31;;;;;;;0.45;0.45;;;15.90;99.90;;;;;;5008959;28;20493;-72
2023/08/13 05:46:57;;;;;;;0.63;0.63;;;15.70;99.90;;;;;;5008715;28;20056;-71
2023/08/13 05:49:22;;;;;;;0.50;0.50;;;15.70;99.90;;;;;;4983771;28;20035;-72
2023/08/13 05:51:48;;;;;;;0.55;0.55;;;15.70;99.90;;;;;;5005683;28;20096;-72
2023/08/13 05:54:14;;;;;;;0.50;0.50;;;16.40;99.90;;;;;;5007271;28;20085;-72
2023/08/13 05:56:40;;;;;;;0.50;0.50;;;16.00;99.90;;;;;;5009396;28;20073;-72
2023/08/13 05:59:06;;;;;;;0.30;0.30;;;16.00;99.90;;;;;;5006613;28;20539;-72
2023/08/13 06:01:33;;;;;;;0.68;0.68;;;;;;;;;;4995760;28;20572;-73
2023/08/13 06:03:59;;;;;;;0.45;0.45;;;16.40;99.90;;;;;;5009053;28;20084;-72
2023/08/13 06:06:25;;;;;;;0.30;0.30;;;16.20;99.90;;;;;;5008812;28;20125;-73
2023/08/13 06:08:51;;;;;;;3.70;1.17;;;16.00;99.90;;;;;;4989435;28;20096;-72
2023/08/13 06:11:17;;;;;;;0.30;0.30;;;16.10;99.90;;;;;;5008865;28;20041;-71
2023/08/13 06:13:42;;;;;;;0.30;0.30;;;16.20;99.90;;;;;;4992386;28;20034;-69
2023/08/13 06:16:08;;;;;;;0.82;0.75;;;15.40;99.90;;;;;;4983537;28;20041;-73
2023/08/13 06:18:34;;;;;;;1.33;1.27;;;16.30;99.90;;;;;;5008106;28;20050;-72
2023/08/13 06:21:00;;;;;;;0.30;0.30;;;16.00;99.90;;;;;;4990882;28;20474;-73
2023/08/13 06:23:26;;;;;;;0.70;0.70;;;16.00;99.90;;;;;;4988132;28;20125;-70
2023/08/13 06:25:51;;;;;;;0.50;0.50;;;16.20;99.90;;;;;;4983949;28;20058;-71
2023/08/13 06:28:17;;;;;;;0.68;0.68;;;16.30;99.90;;;;;;5006510;28;20061;-72
2023/08/13 06:30:44;;;;;;;0.50;0.50;;;16.70;99.90;;;;;;5007283;28;20129;-71
2023/08/13 06:33:10;;;;;;;1.75;0.60;;;16.50;99.90;;;;;;5004961;28;20128;-71
2023/08/13 06:35:36;;;;;;;0.80;0.80;;;16.30;99.90;;;;;;5021154;28;20132;-71
2023/08/13 06:38:01;;;;;;;0.65;0.65;;;16.20;99.90;;;;;;5003605;28;20034;-71
2023/08/13 06:40:27;;;;;;;0.30;0.30;;;16.80;99.90;;;;;;5013637;28;20037;-71
2023/08/13 06:42:53;;;;;;;0.38;0.38;;;17.10;99.90;;;;;;5004655;28;20153;-71
2023/08/13 06:45:21;;;;;;;0.75;0.75;;;16.90;99.90;;;;;;5007354;28;20496;-71
2023/08/13 06:47:47;;;;;;;0.60;0.60;;;16.80;99.90;;;;;;5006792;28;20042;-71
2023/08/13 06:50:13;;;;;;;0.50;0.50;;;16.80;99.90;;;;;;5007682;28;20064;-70
2023/08/13 06:52:38;;;;;;;0.95;0.80;;;16.80;99.90;;;;;;5005756;28;20495;-70
2023/08/13 06:55:04;;;;;;;0.30;0.30;;;17.10;99.90;;;;;;5006459;28;20112;-70
2023/08/13 06:57:30;;;;;;;0.88;0.88;;;17.20;99.90;;;;;;5006716;28;20037;-71
2023/08/13 06:59:56;;;;;;;0.32;0.32;;;18.00;99.90;;;;;;5007171;28;20116;-70
2023/08/13 07:02:22;;;;;;;0.68;0.68;;;17.80;99.90;;;;;;5006981;28;20481;-71
2023/08/13 07:07:24;;;;;;;0.50;0.50;;;18.00;99.90;;;;;;5029149;23;20053;-70
2023/08/13 07:09:51;;;;;;;0.57;0.57;;;18.00;99.90;;;;;;5003328;28;20053;-70
2023/08/13 07:12:17;;;;;;;0.40;0.40;;;18.50;99.90;;;;;;5022459;28;20524;-71
2023/08/13 07:14:43;;;;;;;1.65;0.40;;;18.10;99.90;;;;;;5006486;28;20038;-71
2023/08/13 07:17:10;;;;;;;0.60;0.60;;;18.30;99.90;;;;;;4981006;28;20065;-71
2023/08/13 07:19:36;;;;;;;0.60;0.60;;;18.60;99.90;;;;;;4995388;28;20073;-71
2023/08/13 07:22:02;;;;;;;0.43;0.43;;;18.50;99.90;;;;;;4981189;28;20097;-69
2023/08/13 07:24:28;;;;;;;0.35;0.35;;;19.20;99.90;;;;;;5005361;28;20521;-71
2023/08/13 07:26:54;;;;;;;0.40;0.40;;;19.00;99.90;;;;;;4999454;28;20417;-68
2023/08/13 07:29:19;;;;;;;1.30;0.57;;;19.60;99.90;;;;;;5005593;28;20053;-71
2023/08/13 07:31:46;;;;;;;0.50;0.50;;;19.40;99.90;;;;;;5006021;28;20042;-71
2023/08/13 07:34:11;;;;;;;0.57;0.57;;;19.90;99.90;;;;;;4998028;28;20037;-71
2023/08/13 07:36:37;;;;;;;0.88;0.88;;;20.00;99.90;;;;;;4989896;28;20108;-68
2023/08/13 07:39:03;;;;;;;0.43;0.43;;;20.30;99.90;;;;;;5003710;28;20436;-70
2023/08/13 07:41:28;;;;;;;0.50;0.50;;;20.20;99.90;;;;;;4989729;28;20140;-71
2023/08/13 07:43:54;;;;;;;0.45;0.45;;;20.40;99.90;;;;;;4999735;28;20049;-71
2023/08/13 07:46:20;;;;;;;0.70;0.70;;;20.70;99.90;;;;;;5001551;28;20065;-71
2023/08/13 07:48:46;;;;;;;0.93;0.93;;;20.60;99.90;;;;;;4984945;28;20505;-71
2023/08/13 07:51:12;;;;;;;1.20;0.95;;;21.00;99.90;;;;;;4981221;28;20556;-71
2023/08/13 07:53:40;;;;;;;0.80;0.80;;;21.50;99.90;;;;;;4990379;28;20029;-71
2023/08/13 07:56:06;;;;;;;0.57;0.57;;;21.10;99.90;;;;;;4988625;28;20119;-71
2023/08/13 07:58:32;;;;;;;0.88;0.80;;;21.20;99.90;;;;;;5004243;28;20465;-71
2023/08/13 08:00:58;;;;;;;0.50;0.50;;;21.40;99.90;;;;;;4997270;28;20041;-73
2023/08/13 08:03:24;;;;;;;0.77;0.77;;;21.40;99.90;;;;;;5002019;28;20038;-70
2023/08/13 08:05:51;;;;;;;0.60;0.60;;;22.00;99.90;;;;;;4998108;28;20062;-73
2023/08/13 08:08:17;;;;;;;0.57;0.57;;;22.30;99.90;;;;;;4989110;28;20129;-71
2023/08/13 08:10:43;;;;;;;2.30;1.48;;;22.10;99.90;;;;;;5005953;28;20120;-70
2023/08/13 08:13:08;;;;;;;0.50;0.50;;;22.30;99.90;;;;;;4994430;28;20419;-71
2023/08/13 08:15:34;;;;;;;0.57;0.40;;;21.90;99.90;;;;;;5004427;28;20038;-70
2023/08/13 08:18:00;;;;;;;0.70;0.70;;;22.20;99.90;;;;;;5004820;28;20378;-70
2023/08/13 08:20:26;;;;;;;0.30;0.30;;;22.30;99.90;;;;;;5004317;28;20042;-70
2023/08/13 08:22:52;;;;;;;0.60;0.60;;;22.10;99.90;;;;;;5003619;28;20453;-71
2023/08/13 08:25:19;;;;;;;0.40;0.40;;;22.90;99.90;;;;;;4989264;28;20056;-73
2023/08/13 08:27:45;;;;;;;0.40;0.40;;;22.30;99.90;;;;;;4990117;28;20081;-71
2023/08/13 08:30:11;;;;;;;0.55;0.55;;;22.90;99.90;;;;;;5007952;28;20049;-74
2023/08/13 08:32:37;;;;;;;0.60;0.60;;;22.90;99.90;;;;;;4990185;28;20034;-71
2023/08/13 08:35:03;;;;;;;0.82;0.82;;;22.90;99.90;;;;;;5006465;28;20041;-71
2023/08/13 08:37:31;;;;;;;0.30;0.30;;;22.50;99.90;;;;;;4997556;28;20120;-70
2023/08/13 08:39:58;;;;;;;1.38;0.98;;;22.70;99.90;;;;;;5016390;28;20571;-71
2023/08/13 08:42:24;;;;;;;1.15;1.05;;;;;;;;;;5009422;28;20038;-71
2023/08/13 08:44:50;;;;;;;0.30;0.30;;;;;;;;;;5026329;28;20045;-70
2023/08/13 08:47:18;;;;;;;0.40;0.40;;;22.90;99.90;;;;;;5008718;28;20045;-71
2023/08/13 08:49:46;;;;;;;0.50;0.50;;;22.70;99.90;;;;;;5008499;28;20041;-72
2023/08/13 08:52:14;;;;;;;1.13;1.13;;;23.40;99.90;;;;;;5007836;28;20085;-74
2023/08/13 08:54:40;;;;;;;0.50;0.50;;;22.90;99.90;;;;;;4990650;28;20096;-73
2023/08/13 08:57:06;;;;;;;1.58;1.00;;;23.20;99.90;;;;;;5008573;28;20529;-72
2023/08/13 08:59:32;;;;;;;0.30;0.30;;;23.80;99.90;;;;;;5009695;28;20111;-72
2023/08/13 09:01:58;;;;;;;0.95;0.45;;;23.40;99.90;;;;;;5009262;28;20038;-72
2023/08/13 09:04:24;;;;;;;0.45;0.45;;;23.60;99.90;;;;;;5008628;28;21396;-70
2023/08/13 09:06:58;;;;;;;0.60;0.60;;;24.20;99.90;;;;;;5005656;28;20049;-71
2023/08/13 09:09:26;;;;;;;0.90;0.70;;;24.00;99.90;;;;;;5011043;28;20055;-71
2023/08/13 09:11:52;;;;;;;0.90;0.82;;;24.50;99.90;;;;;;5002657;28;20054;-72
2023/08/13 09:14:19;;;;;;;0.65;0.60;;;24.30;99.90;;;;;;5004930;28;20041;-71
2023/08/13 09:16:46;;;;;;;0.30;0.30;;;24.30;99.90;;;;;;4992558;28;20034;-71
2023/08/13 09:19:13;;;;;;;0.40;0.40;;;24.20;99.90;;;;;;5008352;28;20046;-72
2023/08/13 09:21:40;;;;;;;0.65;0.65;;;24.10;99.90;;;;;;5008142;28;20076;-72
2023/08/13 09:24:09;;;;;;;1.42;0.98;;;24.60;99.90;;;;;;5025364;28;20049;-72
2023/08/13 09:26:36;;;;;;;0.40;0.40;;;23.80;99.90;;;;;;5008662;28;20081;-72
2023/08/13 09:29:07;;;;;;;0.45;0.45;;;;;;;;;;5013028;28;20553;-72
2023/08/13 09:31:33;;;;;;;0.40;0.40;;;;;;;;;;5008160;28;20037;-72
2023/08/13 09:33:59;;;;;;;0.47;0.47;;;;;;;;;;5009155;28;20038;-72
2023/08/13 09:36:25;;;;;;;0.40;0.40;;;24.50;99.90;;;;;;5006180;28;20073;-72
2023/08/13 09:38:52;;;;;;;0.47;0.47;;;24.70;99.90;;;;;;5003321;28;20049;-73
2023/08/13 09:41:20;;;;;;;0.40;0.40;;;;;;;;;;5007894;28;20128;-73
2023/08/13 09:43:49;;;;;;;0.57;0.57;;;24.80;99.90;;;;;;5008958;28;20045;-73
2023/08/13 09:46:24;;;;;;;0.60;0.60;;;25.20;99.90;;;;;;5008841;28;20579;-73
2023/08/13 09:48:53;;;;;;;0.50;0.50;;;25.30;99.90;;;;;;4986475;28;20040;-74
2023/08/13 09:51:25;;;;;;;0.50;0.50;;;25.30;99.90;;;;;;5004894;28;20037;-72
2023/08/13 09:53:58;;;;;;;2.17;1.15;;;25.60;99.90;;;;;;4992779;28;20041;-72
2023/08/13 09:56:28;;;;;;;0.40;0.40;;;25.70;99.90;;;;;;5012020;28;20077;-73
2023/08/13 09:58:54;;;;;;;1.25;1.15;;;25.70;99.90;;;;;;4986225;28;20038;-73
2023/08/13 10:01:20;;;;;;;0.93;0.93;;;;;;;;;;5007702;28;20108;-74
2023/08/13 10:03:46;;;;;;;0.30;0.30;;;25.40;99.90;;;;;;4991833;28;20073;-73
2023/08/13 10:06:14;;;;;;;0.85;0.85;;;25.50;99.90;;;;;;5004818;28;20054;-74
2023/08/13 10:08:40;;;;;;;0.40;0.40;;;25.60;99.90;;;;;;5003178;28;20091;-73
2023/08/13 10:11:07;;;;;;;0.77;0.77;;;25.80;99.90;;;;;;5003471;28;20433;-73
2023/08/13 10:13:32;;;;;;;0.40;0.40;;;25.80;99.90;;;;;;5008191;28;20470;-73
2023/08/13 10:15:59;;;;;;;0.38;0.38;;;;;;;;;;4988817;28;20193;-72
2023/08/13 10:18:25;;;;;;;0.80;0.80;;;26.20;99.90;;;;;;5006117;28;20042;-72
2023/08/13 10:20:51;;;;;;;0.40;0.40;;;26.20;99.90;;;;;;5003704;28;20039;-72
2023/08/13 10:23:18;;;;;;;0.50;0.50;;;26.60;99.90;;;;;;4987529;28;20049;-73
2023/08/13 10:25:44;;;;;;;0.40;0.40;;;;;;;;;;4990066;28;20038;-73
2023/08/13 10:28:28;;;;;;;0.60;0.60;;;;;;;;;;5006164;28;20176;-73
2023/08/13 10:31:19;;;;;;;0.40;0.40;;;26.60;99.90;;;;;;4985771;28;20073;-73
2023/08/13 10:33:45;;;;;;;0.60;0.60;;;;;;;;;;4999649;28;20041;-73
2023/08/13 10:36:11;;;;;;;0.65;0.65;;;26.40;99.90;;;;;;5006903;28;20088;-73
2023/08/13 10:38:38;;;;;;;0.50;0.50;;;26.70;99.90;;;;;;4986812;28;20038;-73
2023/08/13 10:41:06;;;;;;;0.40;0.40;;;26.50;99.90;;;;;;4985356;28;20057;-73
2023/08/13 10:43:33;;;;;;;0.40;0.40;;;26.20;99.90;;;;;;5007736;28;20125;-71
2023/08/13 10:45:59;;;;;;;0.60;0.52;;;25.90;99.90;;;;;;4986579;28;20563;-72
2023/08/13 10:48:29;;;;;;;0.40;0.40;;;25.80;99.90;;;;;;5006238;28;20042;-72
2023/08/13 10:50:57;;;;;;;0.60;0.60;;;25.90;99.90;;;;;;5006086;28;20124;-71
2023/08/13 10:53:26;;;;;;;0.38;0.38;;;26.00;99.90;;;;;;4991173;28;20042;-72
2023/08/13 10:55:54;;;;;;;0.40;0.40;;;26.10;99.90;;;;;;4991188;28;20121;-72
2023/08/13 10:58:36;;;;;;;0.30;0.30;;;25.80;99.90;;;;;;4990615;28;20107;-71
2023/08/13 11:01:11;;;;;;;0.65;0.65;;;;;;;;;;4990052;28;20092;-73
2023/08/13 11:03:44;;;;;;;0.40;0.40;;;;;;;;;;5006844;28;20049;-72
2023/08/13 11:06:11;;;;;;;0.30;0.30;;;25.70;99.90;;;;;;5002562;28;20052;-76
2023/08/13 11:08:40;;;;;;;0.40;0.40;;;25.60;99.90;;;;;;4988037;28;20064;-75
2023/08/13 11:11:06;;;;;;;0.30;0.30;;;25.60;99.90;;;;;;5004883;28;20041;-75
2023/08/13 11:13:32;;;;;;;0.30;0.30;;;25.80;99.90;;;;;;4982515;28;20038;-75
2023/08/13 11:15:58;;;;;;;0.35;0.35;;;25.70;99.90;;;;;;4982523;28;20486;-76
2023/08/13 11:18:24;;;;;;;0.30;0.30;;;25.70;99.90;;;;;;5007393;28;20065;-76
2023/08/13 11:20:50;;;;;;;0.57;0.57;;;25.60;99.90;;;;;;4991593;28;20120;-73
2023/08/13 11:23:17;;;;;;;0.47;0.47;;;;;;;;;;5000171;28;20033;-74
2023/08/13 11:25:46;;;;;;;0.40;0.40;;;;;;;;;;5002134;28;20088;-74
2023/08/13 11:28:46;;;;;;;0.35;0.35;;;;;;;;;;4987748;28;20044;-74
2023/08/13 11:31:12;;;;;;;0.30;0.30;;;;;;;;;;5000961;28;20506;-74
2023/08/13 11:33:39;;;;;;;0.47;0.47;;;25.00;99.90;;;;;;5004779;28;20034;-75
2023/08/13 11:36:05;;;;;;;0.35;0.35;;;;;;;;;;4996988;28;20666;-74
2023/08/13 11:38:31;;;;;;;0.40;0.40;;;24.80;99.90;;;;;;5006593;28;20049;-74
2023/08/13 11:40:57;;;;;;;0.30;0.30;;;;;;;;;;4986846;28;20038;-74
2023/08/13 11:43:22;;;;;;;3.30;1.05;;;24.90;99.90;;;;;;5000658;28;20038;-74
2023/08/13 11:45:49;;;;;;;0.35;0.35;;;;;;;;;;5002217;28;20048;-74
2023/08/13 11:48:17;;;;;;;0.30;0.30;;;24.90;99.90;;;;;;5006556;28;20041;-74
2023/08/13 11:51:13;;;;;;;0.30;0.30;;;24.80;99.90;;;;;;4985831;28;20050;-74
2023/08/13 11:53:43;;;;;;;0.40;0.40;;;24.80;99.90;;;;;;4981150;28;20050;-74
2023/08/13 11:56:13;;;;;;;0.30;0.30;;;24.80;99.90;;;;;;5006169;28;20077;-74
2023/08/13 11:58:40;;;;;;;0.30;0.30;;;24.60;99.90;;;;;;4997824;28;20050;-74
2023/08/13 12:01:10;;;;;;;0.70;0.70;;;24.90;99.90;;;;;;5005729;28;20038;-75
2023/08/13 12:03:44;;;;;;;0.28;0.28;;;24.90;99.90;;;;;;4989547;28;20037;-75
2023/08/13 12:06:11;;;;;;;0.30;0.30;;;24.80;99.90;;;;;;5005051;28;20414;-74
2023/08/13 12:08:37;;;;;;;0.40;0.40;;;24.70;99.90;;;;;;5020733;28;20049;-74
2023/08/13 12:11:03;;;;;;;0.38;0.38;;;24.80;99.90;;;;;;5005766;28;20042;-74
2023/08/13 12:14:06;;;;;;;0.40;0.40;;;24.70;99.90;;;;;;4989528;28;20044;-75
2023/08/13 12:16:32;;;;;;;0.50;0.50;;;24.60;99.90;;;;;;5002626;28;20030;-74
2023/08/13 12:18:58;;;;;;;0.40;0.40;;;24.60;99.90;;;;;;4984130;28;20406;-75
2023/08/13 12:21:24;;;;;;;0.50;0.50;;;24.50;99.90;;;;;;5003251;28;20053;-75
2023/08/13 12:23:49;;;;;;;0.43;0.43;;;24.50;99.90;;;;;;4987513;28;20405;-75
2023/08/13 12:26:15;;;;;;;0.45;0.45;;;24.80;99.90;;;;;;4998498;28;20442;-75
2023/08/13 12:28:41;;;;;;;0.30;0.30;;;24.70;99.90;;;;;;4989951;28;20039;-75
2023/08/13 12:31:07;;;;;;;0.45;0.45;;;24.60;99.90;;;;;;4992434;28;20456;-75
2023/08/13 12:33:33;;;;;;;0.40;0.40;;;;;;;;;;5008442;28;20056;-74
2023/08/13 12:35:59;;;;;;;0.35;0.35;;;;;;;;;;4989483;28;20042;-73
2023/08/13 12:38:25;;;;;;;0.40;0.40;;;;;;;;;;5005553;28;20034;-73
2023/08/13 12:40:51;;;;;;;0.35;0.35;;;;;;;;;;4986207;28;20457;-73
2023/08/13 12:43:17;;;;;;;0.30;0.30;;;;;;;;;;4988105;28;20489;-73
2023/08/13 12:45:43;;;;;;;0.40;0.40;;;24.20;99.90;;;;;;5005825;28;20038;-73
2023/08/13 12:48:08;;;;;;;0.30;0.30;;;24.40;99.90;;;;;;5002033;28;20046;-72
2023/08/13 12:50:34;;;;;;;0.32;0.32;;;;;;;;;;5005493;28;20037;-73
2023/08/13 12:53:03;;;;;;;0.40;0.40;;;24.30;99.90;;;;;;4988287;28;20081;-72
2023/08/13 12:55:28;;;;;;;0.30;0.30;;;24.80;99.90;;;;;;4997130;28;20042;-73
2023/08/13 12:57:54;;;;;;;0.30;0.30;;;24.50;99.90;;;;;;5004932;28;20053;-71